createdAt,value
2022-12-11T00:01:17.046Z,24.73
2022-12-11T00:03:47.119Z,21.83
2022-12-11T00:06:18.934Z,20.95
2022-12-11T00:08:53.043Z,23.83
2022-12-11T00:11:29.238Z,22.08
2022-12-11T00:14:06.482Z,21.45
2022-12-11T00:19:18.052Z,21.77
2022-12-11T00:21:52.816Z,23.08
2022-12-11T00:24:32.359Z,21.13
2022-12-11T00:27:10.130Z,19.27
2022-12-11T00:29:45.276Z,23.10
2022-12-11T00:32:20.470Z,21.80
2022-12-11T00:34:52.419Z,22.42
2022-12-11T00:37:26.492Z,21.92
2022-12-11T00:40:01.285Z,20.17
2022-12-11T00:42:33.820Z,21.10
2022-12-11T00:45:09.076Z,25.60
2022-12-11T00:47:41.252Z,22.00
2022-12-11T00:50:16.717Z,25.00
2022-12-11T00:52:50.307Z,23.58
2022-12-11T00:55:22.583Z,22.35
2022-12-11T00:57:57.480Z,24.67
2022-12-11T01:00:27.490Z,24.15
2022-12-11T01:03:05.889Z,23.55
2022-12-11T01:05:37.881Z,20.48
2022-12-11T01:08:08.423Z,24.63
2022-12-11T01:10:38.224Z,26.27
2022-12-11T01:13:08.007Z,23.15
2022-12-11T01:15:41.794Z,25.85
2022-12-11T01:18:10.398Z,25.17
2022-12-11T01:20:40.407Z,25.02
2022-12-11T01:23:11.668Z,24.70
2022-12-11T01:25:43.107Z,25.20
2022-12-11T01:28:11.712Z,24.25
2022-12-11T01:30:43.193Z,23.10
2022-12-11T01:33:11.818Z,25.50
2022-12-11T01:35:42.481Z,24.25
2022-12-11T01:38:12.559Z,27.23
2022-12-11T01:40:53.307Z,24.70
2022-12-11T01:43:21.482Z,26.92
2022-12-11T01:45:50.530Z,25.70
2022-12-11T01:48:23.137Z,26.20
2022-12-11T01:50:54.816Z,24.27
2022-12-11T01:53:29.644Z,25.15
2022-12-11T01:56:00.717Z,28.55
2022-12-11T01:58:33.557Z,26.08
2022-12-11T02:01:03.582Z,25.02
2022-12-11T02:03:31.809Z,26.75
2022-12-11T02:06:01.019Z,24.77
2022-12-11T02:08:30.983Z,23.35
2022-12-11T02:11:07.581Z,26.88
2022-12-11T02:13:41.504Z,25.77
2022-12-11T02:16:19.625Z,23.88
2022-12-11T02:18:55.870Z,25.77
2022-12-11T02:21:29.666Z,27.77
2022-12-11T02:24:12.989Z,25.65
2022-12-11T02:27:13.728Z,29.98
2022-12-11T02:29:51.545Z,24.98
2022-12-11T02:32:23.534Z,23.45
2022-12-11T02:35:01.411Z,26.02
2022-12-11T02:37:32.264Z,24.58
2022-12-11T02:40:00.824Z,26.67
2022-12-11T02:42:32.500Z,23.95
2022-12-11T02:45:06.817Z,31.10
2022-12-11T02:47:35.182Z,25.27
2022-12-11T02:50:07.855Z,26.08
2022-12-11T02:52:37.492Z,25.65
2022-12-11T02:55:09.175Z,30.08
2022-12-11T02:57:44.365Z,25.30
2022-12-11T03:00:16.762Z,27.13
2022-12-11T03:02:45.692Z,26.33
2022-12-11T03:05:15.509Z,27.50
2022-12-11T03:07:46.511Z,26.85
2022-12-11T03:10:18.934Z,24.95
2022-12-11T03:12:53.349Z,27.15
2022-12-11T03:15:30.965Z,26.75
2022-12-11T03:18:06.745Z,21.70
2022-12-11T03:20:42.312Z,24.48
2022-12-11T03:23:19.321Z,27.05
2022-12-11T03:25:53.645Z,23.05
2022-12-11T03:28:26.972Z,26.00
2022-12-11T03:30:59.330Z,24.42
2022-12-11T03:33:32.268Z,24.88
2022-12-11T03:36:04.701Z,26.25
2022-12-11T03:38:37.381Z,24.38
2022-12-11T03:41:08.177Z,24.02
2022-12-11T03:43:37.622Z,20.48
2022-12-11T03:46:09.212Z,22.52
2022-12-11T03:48:42.920Z,23.63
2022-12-11T03:51:11.288Z,21.27
2022-12-11T03:53:40.333Z,24.10
2022-12-11T03:56:15.087Z,23.63
2022-12-11T03:58:44.842Z,23.33
2022-12-11T04:01:16.863Z,21.80
2022-12-11T04:03:45.086Z,21.63
2022-12-11T04:06:13.270Z,20.92
2022-12-11T04:08:41.478Z,22.63
2022-12-11T04:11:26.972Z,21.52
2022-12-11T04:14:08.904Z,22.60
2022-12-11T04:16:38.746Z,22.73
2022-12-11T04:19:24.664Z,22.35
2022-12-11T04:22:10.503Z,20.45
2022-12-11T04:24:39.781Z,23.60
2022-12-11T04:27:08.446Z,23.27
2022-12-11T04:29:36.694Z,23.60
2022-12-11T04:32:06.717Z,23.65
2022-12-11T04:34:35.124Z,24.55
2022-12-11T04:37:03.529Z,25.63
2022-12-11T04:39:31.872Z,24.13
2022-12-11T04:42:00.029Z,22.88
2022-12-11T04:44:28.125Z,24.08
2022-12-11T04:46:58.767Z,24.88
2022-12-11T04:49:30.543Z,25.48
2022-12-11T04:51:58.985Z,22.95
2022-12-11T04:54:27.147Z,23.83
2022-12-11T04:56:55.508Z,24.83
2022-12-11T04:59:23.904Z,28.35
2022-12-11T05:01:52.413Z,27.75
2022-12-11T05:04:21.498Z,28.95
2022-12-11T05:06:51.967Z,29.20
2022-12-11T05:09:20.087Z,27.13
2022-12-11T05:11:48.341Z,25.63
2022-12-11T05:14:16.660Z,27.83
2022-12-11T05:16:44.839Z,26.48
2022-12-11T05:19:13.426Z,27.10
2022-12-11T05:21:42.064Z,27.20
2022-12-11T05:24:12.738Z,27.02
2022-12-11T05:26:40.972Z,30.60
2022-12-11T05:29:09.362Z,28.35
2022-12-11T05:31:37.674Z,30.02
2022-12-11T05:34:05.915Z,29.73
2022-12-11T05:36:34.922Z,25.80
2022-12-11T05:39:06.140Z,26.75
2022-12-11T05:41:35.902Z,29.45
2022-12-11T05:44:04.066Z,29.58
2022-12-11T05:46:32.597Z,27.33
2022-12-11T05:49:02.594Z,27.27
2022-12-11T05:51:31.402Z,29.85
2022-12-11T05:54:02.818Z,27.02
2022-12-11T05:56:33.652Z,26.75
2022-12-11T05:59:04.760Z,27.08
2022-12-11T06:01:35.144Z,26.50
2022-12-11T06:04:04.546Z,25.48
2022-12-11T06:06:33.768Z,27.23
2022-12-11T06:09:02.429Z,27.50
2022-12-11T06:11:32.629Z,26.02
2022-12-11T06:14:03.823Z,24.92
2022-12-11T06:16:32.364Z,26.98
2022-12-11T06:19:00.783Z,24.75
2022-12-11T06:21:30.567Z,25.15
2022-12-11T06:24:01.762Z,24.63
2022-12-11T06:26:31.964Z,22.95
2022-12-11T06:29:00.558Z,23.08
2022-12-11T06:31:30.253Z,28.05
2022-12-11T06:33:58.489Z,23.13
2022-12-11T06:36:28.973Z,24.58
2022-12-11T06:38:57.195Z,22.73
2022-12-11T06:41:25.408Z,21.88
2022-12-11T06:43:53.650Z,22.65
2022-12-11T06:46:23.945Z,21.80
2022-12-11T06:48:53.687Z,20.85
2022-12-11T06:51:23.519Z,21.60
2022-12-11T06:53:53.538Z,21.08
2022-12-11T06:56:22.533Z,22.30
2022-12-11T06:58:52.022Z,18.67
2022-12-11T07:01:22.263Z,19.67
2022-12-11T07:03:50.772Z,20.63
2022-12-11T07:06:20.442Z,20.70
2022-12-11T07:08:48.958Z,19.77
2022-12-11T07:11:18.625Z,22.60
2022-12-11T07:13:46.933Z,19.33
2022-12-11T07:16:17.802Z,21.02
2022-12-11T07:18:50.849Z,19.50
2022-12-11T07:21:24.245Z,20.05
2022-12-11T07:23:54.895Z,16.42
2022-12-11T07:26:24.006Z,21.10
2022-12-11T07:28:52.239Z,17.48
2022-12-11T07:31:23.439Z,19.50
2022-12-11T07:33:55.135Z,20.90
2022-12-11T07:36:25.958Z,19.88
2022-12-11T07:38:55.384Z,21.42
2022-12-11T07:41:24.604Z,20.63
2022-12-11T07:43:55.960Z,18.80
2022-12-11T07:46:27.523Z,17.23
2022-12-11T07:48:56.220Z,18.85
2022-12-11T07:51:27.979Z,20.75
2022-12-11T07:53:58.882Z,18.48
2022-12-11T07:56:27.610Z,21.63
2022-12-11T07:58:55.843Z,21.70
2022-12-11T08:01:26.582Z,18.88
2022-12-11T08:03:57.137Z,22.10
2022-12-11T08:06:29.860Z,19.30
2022-12-11T08:08:59.030Z,20.63
2022-12-11T08:11:28.613Z,19.73
2022-12-11T08:13:59.159Z,19.45
2022-12-11T08:16:28.470Z,18.23
2022-12-11T08:19:00.090Z,17.77
2022-12-11T08:21:30.109Z,19.48
2022-12-11T08:23:58.563Z,18.92
2022-12-11T08:26:31.751Z,16.90
2022-12-11T08:29:01.427Z,18.15
2022-12-11T08:31:30.203Z,18.27
2022-12-11T08:33:58.803Z,19.17
2022-12-11T08:36:27.210Z,19.60
2022-12-11T08:39:00.107Z,17.25
2022-12-11T08:41:31.656Z,18.73
2022-12-11T08:44:01.772Z,19.50
2022-12-11T08:46:31.950Z,17.90
2022-12-11T08:49:00.746Z,17.17
2022-12-11T08:51:30.207Z,16.40
2022-12-11T08:54:02.189Z,17.10
2022-12-11T08:56:31.411Z,17.38
2022-12-11T08:59:04.234Z,18.85
2022-12-11T09:01:33.770Z,20.50
2022-12-11T09:04:02.193Z,17.23
2022-12-11T09:06:54.975Z,17.77
2022-12-11T09:09:24.908Z,14.32
2022-12-11T09:11:53.012Z,15.70
2022-12-11T09:14:21.654Z,15.43
2022-12-11T09:16:49.848Z,17.52
2022-12-11T09:19:18.109Z,16.25
2022-12-11T09:21:47.620Z,18.48
2022-12-11T09:24:16.366Z,16.67
2022-12-11T09:26:47.193Z,17.67
2022-12-11T09:29:17.414Z,17.98
2022-12-11T09:31:46.884Z,18.42
2022-12-11T09:34:17.694Z,18.45
2022-12-11T09:36:45.998Z,17.33
2022-12-11T09:39:16.507Z,19.65
2022-12-11T09:41:54.128Z,18.83
2022-12-11T09:44:41.132Z,19.38
2022-12-11T09:47:20.231Z,19.40
2022-12-11T09:49:50.821Z,18.60
2022-12-11T09:52:21.477Z,17.50
2022-12-11T09:54:52.181Z,18.95
2022-12-11T09:57:33.334Z,18.73
2022-12-11T10:00:13.472Z,18.55
2022-12-11T10:02:58.103Z,18.20
2022-12-11T10:05:34.353Z,18.73
2022-12-11T10:08:10.235Z,18.30
2022-12-11T10:10:44.490Z,19.35
2022-12-11T10:13:27.234Z,19.77
2022-12-11T10:16:01.155Z,17.73
2022-12-11T10:18:30.932Z,17.30
2022-12-11T10:21:08.411Z,17.05
2022-12-11T10:26:15.122Z,16.10
2022-12-11T10:28:44.982Z,15.70
2022-12-11T10:31:19.363Z,16.15
2022-12-11T10:33:57.658Z,18.50
2022-12-11T10:36:29.733Z,16.15
2022-12-11T10:38:58.815Z,18.67
2022-12-11T10:41:37.755Z,13.45
2022-12-11T10:44:17.636Z,15.50
2022-12-11T10:46:46.653Z,12.45
2022-12-11T10:49:26.391Z,13.00
2022-12-11T10:51:56.064Z,15.75
2022-12-11T10:54:36.763Z,13.15
2022-12-11T10:57:06.915Z,14.93
2022-12-11T10:59:40.270Z,12.90
2022-12-11T11:02:20.748Z,15.68
2022-12-11T11:04:49.420Z,17.08
2022-12-11T11:07:21.655Z,14.15
2022-12-11T11:09:51.685Z,14.70
2022-12-11T11:12:23.445Z,14.63
2022-12-11T11:15:03.598Z,17.10
2022-12-11T11:17:35.341Z,17.40
2022-12-11T11:20:14.202Z,15.63
2022-12-11T11:22:45.703Z,15.80
2022-12-11T11:25:19.521Z,14.82
2022-12-11T11:27:52.364Z,17.63
2022-12-11T11:30:25.093Z,16.75
2022-12-11T11:32:55.468Z,15.75
2022-12-11T11:35:26.561Z,16.27
2022-12-11T11:38:06.810Z,15.98
2022-12-11T11:40:39.637Z,17.65
2022-12-11T11:43:17.494Z,16.90
2022-12-11T11:45:53.181Z,15.70
2022-12-11T11:48:34.322Z,18.00
2022-12-11T11:51:13.133Z,16.42
2022-12-11T11:53:41.920Z,13.13
2022-12-11T11:56:23.068Z,17.52
2022-12-11T11:59:04.294Z,15.90
2022-12-11T12:01:34.618Z,17.27
2022-12-11T12:04:06.431Z,13.63
2022-12-11T12:06:50.565Z,17.30
2022-12-11T12:09:34.617Z,14.65
2022-12-11T12:12:16.248Z,10.95
2022-12-11T12:15:02.578Z,14.07
2022-12-11T12:17:55.200Z,14.90
2022-12-11T12:20:33.225Z,14.07
2022-12-11T12:23:23.408Z,14.38
2022-12-11T12:26:02.664Z,12.55
2022-12-11T12:28:42.280Z,11.77
2022-12-11T12:31:25.968Z,13.50
2022-12-11T12:34:07.430Z,13.45
2022-12-11T12:36:44.515Z,13.38
2022-12-11T12:39:24.533Z,14.18
2022-12-11T12:42:07.057Z,12.90
2022-12-11T12:44:46.516Z,14.75
2022-12-11T12:47:18.594Z,13.93
2022-12-11T12:49:49.801Z,13.32
2022-12-11T12:52:22.271Z,12.23
2022-12-11T12:55:15.952Z,12.95
2022-12-11T12:57:49.073Z,13.32
2022-12-11T13:00:32.376Z,13.20
2022-12-11T13:03:04.562Z,12.27
2022-12-11T13:05:35.806Z,11.02
2022-12-11T13:08:06.419Z,13.15
2022-12-11T13:10:39.044Z,10.93
2022-12-11T13:13:28.261Z,11.98
2022-12-11T13:16:09.011Z,10.65
2022-12-11T13:18:39.680Z,11.10
2022-12-11T13:21:29.658Z,11.23
2022-12-11T13:24:16.855Z,11.32
2022-12-11T13:29:40.063Z,11.18
2022-12-11T13:32:24.541Z,12.25
2022-12-11T13:34:56.576Z,10.20
2022-12-11T13:37:31.844Z,10.98
2022-12-11T13:40:02.126Z,10.68
2022-12-11T13:42:34.533Z,12.32
2022-12-11T13:45:04.270Z,10.75
2022-12-11T13:47:34.132Z,8.98
2022-12-11T13:50:16.648Z,8.50
2022-12-11T13:52:55.659Z,8.75
2022-12-11T13:55:27.012Z,11.27
2022-12-11T13:57:58.551Z,9.77
2022-12-11T14:00:32.209Z,9.90
2022-12-11T14:03:07.346Z,11.43
2022-12-11T14:05:36.446Z,11.48
2022-12-11T14:08:10.666Z,9.07
2022-12-11T14:10:42.423Z,10.05
2022-12-11T14:13:25.542Z,7.50
2022-12-11T14:15:55.260Z,8.98
2022-12-11T14:18:27.395Z,9.20
2022-12-11T14:20:57.098Z,9.90
2022-12-11T14:23:31.748Z,9.65
2022-12-11T14:26:02.307Z,10.85
2022-12-11T14:28:38.295Z,13.30
2022-12-11T14:31:07.973Z,9.07
2022-12-11T14:33:42.756Z,9.98
2022-12-11T14:36:12.328Z,10.60
2022-12-11T14:38:46.649Z,9.77
2022-12-11T14:41:20.797Z,9.77
2022-12-11T14:43:52.693Z,10.82
2022-12-11T14:46:25.095Z,10.93
2022-12-11T14:49:01.304Z,11.52
2022-12-11T14:51:36.073Z,10.77
2022-12-11T14:54:06.766Z,10.82
2022-12-11T14:56:36.394Z,11.15
2022-12-11T14:59:09.121Z,12.82
2022-12-11T15:01:38.744Z,13.43
2022-12-11T15:04:20.964Z,12.57
2022-12-11T15:06:51.020Z,12.85
2022-12-11T15:09:22.838Z,9.85
2022-12-11T15:11:52.038Z,9.55
2022-12-11T15:14:21.798Z,10.90
2022-12-11T15:16:51.690Z,10.82
2022-12-11T15:19:22.969Z,9.70
2022-12-11T15:21:51.726Z,11.20
2022-12-11T15:24:29.402Z,12.38
2022-12-11T15:27:01.811Z,10.35
2022-12-11T15:29:34.890Z,10.23
2022-12-11T15:32:14.507Z,11.90
2022-12-11T15:34:47.194Z,12.90
2022-12-11T15:37:23.495Z,11.75
2022-12-11T15:39:54.290Z,11.60
2022-12-11T15:42:27.079Z,14.98
2022-12-11T15:44:56.504Z,12.48
2022-12-11T15:47:27.011Z,12.98
2022-12-11T15:49:58.256Z,13.05
2022-12-11T15:52:26.746Z,12.65
2022-12-11T15:54:56.242Z,12.80
2022-12-11T15:57:25.750Z,12.20
2022-12-11T15:59:56.280Z,11.45
2022-12-11T16:02:26.708Z,13.00
2022-12-11T16:04:57.865Z,12.30
2022-12-11T16:07:27.453Z,12.85
2022-12-11T16:09:56.986Z,11.18
2022-12-11T16:12:25.143Z,12.10
2022-12-11T16:14:53.477Z,13.93
2022-12-11T16:17:27.048Z,13.20
2022-12-11T16:19:55.304Z,12.30
2022-12-11T16:22:23.691Z,13.27
2022-12-11T16:24:56.386Z,13.73
2022-12-11T16:27:25.133Z,11.65
2022-12-11T16:29:53.360Z,15.00
2022-12-11T16:32:21.546Z,16.77
2022-12-11T16:34:49.768Z,13.88
2022-12-11T16:37:17.965Z,15.48
2022-12-11T16:39:53.129Z,15.20
2022-12-11T16:42:23.850Z,15.25
2022-12-11T16:44:53.042Z,15.23
2022-12-11T16:47:21.770Z,14.15
2022-12-11T16:49:50.889Z,16.48
2022-12-11T16:52:23.999Z,14.00
2022-12-11T16:54:52.499Z,15.18
2022-12-11T16:57:20.795Z,15.52
2022-12-11T16:59:50.581Z,14.38
2022-12-11T17:02:19.827Z,15.13
2022-12-11T17:04:53.673Z,15.88
2022-12-11T17:07:22.198Z,26.35
2022-12-11T17:09:50.548Z,13.50
2022-12-11T17:12:25.856Z,17.52
2022-12-11T17:14:55.399Z,13.10
2022-12-11T17:17:24.992Z,15.10
2022-12-11T17:19:53.264Z,15.57
2022-12-11T17:22:23.308Z,15.23
2022-12-11T17:24:51.737Z,16.98
2022-12-11T17:27:20.243Z,14.32
2022-12-11T17:29:49.664Z,15.63
2022-12-11T17:32:19.972Z,17.92
2022-12-11T17:34:50.537Z,15.57
2022-12-11T17:37:19.107Z,16.02
2022-12-11T17:39:48.709Z,17.25
2022-12-11T17:42:18.913Z,15.25
2022-12-11T17:44:47.182Z,17.58
2022-12-11T17:47:15.590Z,17.02
2022-12-11T17:49:45.391Z,18.98
2022-12-11T17:52:13.648Z,18.83
2022-12-11T17:54:41.901Z,17.15
2022-12-11T17:57:10.252Z,16.23
2022-12-11T17:59:38.536Z,18.38
2022-12-11T18:02:06.898Z,22.33
2022-12-11T18:04:35.741Z,18.42
2022-12-11T18:07:05.562Z,19.85
2022-12-11T18:09:34.392Z,18.83
2022-12-11T18:12:02.551Z,20.38
2022-12-11T18:14:30.734Z,19.02
2022-12-11T18:16:58.891Z,18.65
2022-12-11T18:19:27.247Z,19.67
2022-12-11T18:21:56.612Z,18.60
2022-12-11T18:24:31.709Z,22.05
2022-12-11T18:27:00.306Z,21.70
2022-12-11T18:29:28.695Z,20.08
2022-12-11T18:31:57.017Z,19.38
2022-12-11T18:34:26.253Z,41.22
2022-12-11T18:36:56.892Z,21.38
2022-12-11T18:39:26.538Z,20.55
2022-12-11T18:42:24.226Z,20.58
2022-12-11T18:44:43.458Z,19.45
2022-12-11T18:47:13.806Z,24.15
2022-12-11T18:49:42.113Z,24.90
2022-12-11T18:52:10.286Z,22.83
2022-12-11T18:54:42.494Z,22.90
2022-12-11T18:57:10.753Z,50.30
2022-12-11T18:59:40.449Z,81.75
2022-12-11T19:02:09.212Z,23.92
2022-12-11T19:04:37.633Z,27.08
2022-12-11T19:07:06.030Z,21.80
2022-12-11T19:09:38.079Z,24.30
2022-12-11T19:12:08.546Z,23.20
2022-12-11T19:14:36.861Z,28.88
2022-12-11T19:17:05.030Z,26.75
2022-12-11T19:19:33.311Z,26.13
2022-12-11T19:22:04.131Z,27.77
2022-12-11T19:24:34.436Z,26.85
2022-12-11T19:27:02.713Z,26.25
2022-12-11T19:29:33.415Z,28.33
2022-12-11T19:32:03.537Z,31.65
2022-12-11T19:34:31.780Z,27.92
2022-12-11T19:37:00.281Z,28.60
2022-12-11T19:39:28.562Z,32.92
2022-12-11T19:41:56.814Z,24.05
2022-12-11T19:44:25.132Z,30.25
2022-12-11T19:46:54.682Z,33.20
2022-12-11T19:49:23.004Z,32.78
2022-12-11T19:51:51.504Z,25.38
2022-12-11T19:54:19.978Z,26.98
2022-12-11T19:56:48.324Z,32.13
2022-12-11T19:59:19.111Z,27.13
2022-12-11T20:01:48.108Z,30.55
2022-12-11T20:04:20.255Z,29.58
2022-12-11T20:06:48.851Z,31.10
2022-12-11T20:09:19.800Z,34.42
2022-12-11T20:11:48.611Z,28.63
2022-12-11T20:14:23.676Z,30.15
2022-12-11T20:17:10.968Z,28.60
2022-12-11T20:19:43.299Z,30.20
2022-12-11T20:22:13.752Z,29.35
2022-12-11T20:24:42.193Z,25.42
2022-12-11T20:27:12.264Z,27.92
2022-12-11T20:29:40.418Z,33.58
2022-12-11T20:32:11.551Z,31.05
2022-12-11T20:34:40.080Z,26.63
2022-12-11T20:37:09.742Z,33.40
2022-12-11T20:39:38.144Z,31.23
2022-12-11T20:42:06.376Z,35.92
2022-12-11T20:44:34.837Z,56.40
2022-12-11T20:47:03.060Z,35.05
2022-12-11T20:49:31.317Z,32.75
2022-12-11T20:52:00.431Z,30.27
2022-12-11T20:54:29.870Z,29.83
2022-12-11T20:56:58.452Z,28.80
2022-12-11T20:59:27.381Z,27.70
2022-12-11T21:01:55.925Z,26.70
2022-12-11T21:04:24.560Z,29.23
2022-12-11T21:06:56.304Z,24.88
2022-12-11T21:09:26.502Z,24.55
2022-12-11T21:12:00.735Z,27.20
2022-12-11T21:14:29.626Z,28.25
2022-12-11T21:16:58.602Z,28.98
2022-12-11T21:19:27.204Z,27.02
2022-12-11T21:21:56.275Z,24.55
2022-12-11T21:24:27.373Z,25.45
2022-12-11T21:26:59.840Z,25.38
2022-12-11T21:29:30.356Z,26.40
2022-12-11T21:31:58.985Z,27.42
2022-12-11T21:34:27.667Z,27.42
2022-12-11T21:36:59.712Z,27.30
2022-12-11T21:39:29.301Z,27.17
2022-12-11T21:42:00.489Z,28.05
2022-12-11T21:47:17.252Z,27.60
2022-12-11T21:49:45.319Z,27.42
2022-12-11T21:52:14.512Z,28.45
2022-12-11T21:54:42.741Z,24.35
2022-12-11T21:57:12.237Z,25.70
2022-12-11T21:59:40.391Z,24.70
2022-12-11T22:02:11.220Z,27.13
2022-12-11T22:04:39.677Z,25.90
2022-12-11T22:07:08.024Z,26.48
2022-12-11T22:09:36.120Z,24.38
2022-12-11T22:12:04.471Z,26.05
2022-12-11T22:14:34.679Z,21.15
2022-12-11T22:17:05.329Z,19.33
2022-12-11T22:19:33.508Z,22.33
2022-12-11T22:22:01.621Z,22.45
2022-12-11T22:24:29.741Z,20.58
2022-12-11T22:27:00.717Z,19.65
2022-12-11T22:29:28.868Z,23.20
2022-12-11T22:31:58.583Z,24.80
2022-12-11T22:34:26.647Z,23.00
2022-12-11T22:36:55.188Z,24.25
2022-12-11T22:39:24.437Z,27.00
2022-12-11T22:41:52.518Z,22.92
2022-12-11T22:44:22.180Z,28.05
2022-12-11T22:46:50.893Z,27.85
2022-12-11T22:49:21.000Z,26.58
2022-12-11T22:51:49.379Z,25.83
2022-12-11T22:54:17.665Z,27.50
2022-12-11T22:56:45.919Z,24.05
2022-12-11T22:59:14.018Z,29.60
2022-12-11T23:01:42.434Z,27.60
2022-12-11T23:04:10.659Z,28.02
2022-12-11T23:06:40.355Z,26.77
2022-12-11T23:09:08.796Z,27.15
2022-12-11T23:11:39.125Z,26.90
2022-12-11T23:14:09.411Z,27.35
2022-12-11T23:16:40.588Z,29.98
2022-12-11T23:19:11.607Z,25.83
2022-12-11T23:21:41.007Z,26.02
2022-12-11T23:24:13.409Z,28.33
2022-12-11T23:26:41.955Z,27.83
2022-12-11T23:29:10.107Z,26.05
2022-12-11T23:31:38.307Z,30.80
2022-12-11T23:34:06.484Z,26.88
2022-12-11T23:36:37.114Z,27.48
2022-12-11T23:39:06.834Z,24.08
2022-12-11T23:41:35.052Z,24.38
2022-12-11T23:44:03.179Z,26.50
2022-12-11T23:46:31.327Z,25.42
2022-12-11T23:48:59.534Z,26.52
2022-12-11T23:51:27.869Z,26.70
2022-12-11T23:53:55.974Z,25.08
2022-12-11T23:56:30.168Z,24.15
2022-12-11T23:58:59.491Z,23.63
